Time;durP1;ratioP1;P1;durP2;ratioP2;P2;SDS_P1;SDS_P2;PMS_P1;PMS_P2;Temp;Humidity;BMP_temperature;BMP_pressure;BME280_temperature;BME280_humidity;BME280_pressure;Samples;Min_cycle;Max_cycle;Signal;HPM_P1;HPM_P2
2022/11/16 00:00:46;;;;;;;33.53;19.20;;;6.40;67.40;;;;;;10399030;28;20192;-87
2022/11/16 00:06:08;;;;;;;38.27;20.27;;;6.40;76.00;;;;;;10391946;28;20290;-84
2022/11/16 00:11:29;;;;;;;31.77;17.63;;;6.40;72.70;;;;;;10365175;28;20383;-83
2022/11/16 00:16:51;;;;;;;28.67;17.80;;;6.40;78.70;;;;;;10375241;28;20502;-84
2022/11/16 00:22:12;;;;;;;29.67;16.03;;;6.50;72.40;;;;;;10373008;28;20195;-84
2022/11/16 00:27:33;;;;;;;26.70;15.90;;;6.50;81.10;;;;;;10386819;28;20231;-84
2022/11/16 00:32:59;;;;;;;31.53;16.87;;;6.50;62.70;;;;;;10386897;28;20195;-84
2022/11/16 00:38:21;;;;;;;27.47;17.13;;;6.50;57.80;;;;;;10400171;28;20275;-86
2022/11/16 00:43:42;;;;;;;28.57;16.17;;;6.50;63.40;;;;;;10386295;28;20191;-88
2022/11/16 00:49:05;;;;;;;29.00;16.00;;;6.50;95.00;;;;;;10406957;28;20211;-89
2022/11/16 00:54:26;;;;;;;23.00;14.80;;;6.50;92.10;;;;;;10372677;28;20375;-90
2022/11/16 00:59:48;;;;;;;25.33;14.80;;;6.50;99.90;;;;;;10372363;28;20199;-88
2022/11/16 01:05:10;;;;;;;23.23;14.53;;;6.50;99.90;;;;;;10374848;28;20247;-92
2022/11/16 01:10:31;;;;;;;24.60;14.37;;;6.50;99.90;;;;;;10382725;28;20235;-90
2022/11/16 01:15:53;;;;;;;21.10;13.80;;;6.60;99.90;;;;;;10371246;28;20238;-90
2022/11/16 01:21:14;;;;;;;24.10;14.73;;;6.60;99.90;;;;;;10399165;28;20195;-88
2022/11/16 01:26:35;;;;;;;23.17;15.10;;;6.60;99.90;;;;;;10370904;28;20227;-90
2022/11/16 01:31:57;;;;;;;25.17;16.27;;;6.60;99.90;;;;;;10370879;28;20279;-92
2022/11/16 01:37:20;;;;;;;24.17;14.27;;;6.60;99.90;;;;;;10370934;28;20200;-88
2022/11/16 01:42:44;;;;;;;25.53;15.43;;;6.60;99.90;;;;;;10398698;28;20215;-87
2022/11/16 01:48:11;;;;;;;28.70;15.37;;;6.60;99.90;;;;;;10383778;28;20299;-87
2022/11/16 01:53:33;;;;;;;24.37;14.77;;;6.60;99.90;;;;;;10397954;28;20217;-84
2022/11/16 01:58:55;;;;;;;27.33;14.60;;;6.60;99.90;;;;;;10397861;28;20196;-87
2022/11/16 02:04:19;;;;;;;24.30;14.50;;;6.70;99.90;;;;;;10396910;28;20263;-84
2022/11/16 02:10:34;;;;;;;28.00;16.33;;;6.70;99.90;;;;;;10382253;28;20554;-86
2022/11/16 02:16:08;;;;;;;30.70;17.70;;;6.70;99.90;;;;;;10379625;28;20510;-86
2022/11/16 02:21:42;;;;;;;27.67;15.23;;;6.70;99.90;;;;;;10368784;28;20203;-84
2022/11/16 02:27:27;;;;;;;29.00;15.53;;;6.70;99.90;;;;;;10369051;28;20228;-83
2022/11/16 02:32:56;;;;;;;28.90;16.73;;;6.70;99.90;;;;;;10383377;28;20457;-82
2022/11/16 02:38:24;;;;;;;26.03;15.17;;;6.70;99.90;;;;;;10342419;28;20198;-88
2022/11/16 02:43:53;;;;;;;20.50;13.33;;;6.70;99.90;;;;;;10359729;28;20201;-83
2022/11/16 02:49:18;;;;;;;29.77;14.97;;;6.70;99.90;;;;;;10368411;28;20527;-90
2022/11/16 02:54:39;;;;;;;29.97;14.30;;;6.70;99.90;;;;;;10395278;28;20189;-83
2022/11/16 03:00:04;;;;;;;24.73;14.27;;;6.70;98.10;;;;;;10381616;28;20204;-84
2022/11/16 03:05:56;;;;;;;26.43;13.97;;;6.70;66.30;;;;;;10400932;28;20562;-87
2022/11/16 03:17:04;;;;;;;19.80;11.50;;;6.70;19.20;;;;;;10380841;28;20224;-83
2022/11/16 03:22:27;;;;;;;25.57;12.63;;;6.60;5.80;;;;;;10381252;28;20204;-83
2022/11/16 03:28:16;;;;;;;21.37;11.57;;;6.60;1.30;;;;;;10381117;28;20225;-84
2022/11/16 03:33:44;;;;;;;16.43;9.50;;;6.60;1.00;;;;;;10398652;28;20421;-83
2022/11/16 03:39:24;;;;;;;12.70;8.33;;;6.60;1.00;;;;;;10383897;28;20188;-85
2022/11/16 03:44:47;;;;;;;12.40;7.57;;;6.60;1.00;;;;;;10407667;28;20213;-84
2022/11/16 03:50:08;;;;;;;11.33;6.90;;;6.60;1.00;;;;;;10374672;28;20201;-85
2022/11/16 03:55:32;;;;;;;12.73;7.03;;;6.50;1.00;;;;;;10374826;28;20198;-84
2022/11/16 04:00:54;;;;;;;9.17;5.57;;;6.40;1.00;;;;;;10388947;28;20201;-89
2022/11/16 04:28:56;;;;;;;5.03;2.93;;;6.20;1.00;;;;;;10386770;28;20462;-86
2022/11/16 04:39:58;;;;;;;4.17;2.80;;;6.10;1.00;;;;;;10400518;28;20199;-87
2022/11/16 04:51:01;;;;;;;3.37;2.17;;;6.10;1.00;;;;;;10385674;28;20455;-86
2022/11/16 04:56:24;;;;;;;4.47;2.63;;;6.10;1.00;;;;;;10386316;28;20190;-86
2022/11/16 05:07:25;;;;;;;2.90;2.57;;;6.10;1.00;;;;;;10392486;28;20256;-83
2022/11/16 05:12:55;;;;;;;4.53;2.63;;;6.10;1.00;;;;;;10337675;28;20424;-83
2022/11/16 05:18:18;;;;;;;6.40;2.90;;;6.10;1.00;;;;;;10369366;28;20452;-82
2022/11/16 05:29:24;;;;;;;5.00;3.20;;;6.10;1.00;;;;;;10387908;28;20204;-91
2022/11/16 05:34:45;;;;;;;5.83;3.90;;;6.10;1.00;;;;;;10383850;28;20203;-82
2022/11/16 05:40:08;;;;;;;4.70;3.40;;;6.10;1.00;;;;;;10370753;28;20206;-84
2022/11/16 05:45:47;;;;;;;8.97;6.87;;;6.10;1.00;;;;;;10383605;28;20492;-83
2022/11/16 05:51:09;;;;;;;5.83;4.47;;;6.00;1.00;;;;;;10369965;28;20199;-82
2022/11/16 05:56:33;;;;;;;11.33;7.83;;;6.00;1.00;;;;;;10369840;28;20200;-87
2022/11/16 06:01:55;;;;;;;23.23;13.37;;;6.00;1.00;;;;;;10382600;28;20322;-85
2022/11/16 06:07:17;;;;;;;25.63;14.43;;;6.00;1.00;;;;;;10385061;28;20228;-83
2022/11/16 06:12:38;;;;;;;14.53;8.53;;;5.90;99.90;;;;;;10358661;28;20202;-84
2022/11/16 06:17:59;;;;;;;16.83;9.03;;;5.80;99.90;;;;;;10341695;28;20456;-89
2022/11/16 06:23:21;;;;;;;38.57;21.17;;;5.80;99.90;;;;;;10358076;28;20200;-84
2022/11/16 06:28:44;;;;;;;27.40;13.03;;;5.70;99.90;;;;;;10342603;28;20311;-89
2022/11/16 06:34:06;;;;;;;23.20;10.47;;;5.70;1.00;;;;;;10382569;28;20196;-84
2022/11/16 06:39:28;;;;;;;12.70;6.83;;;5.70;99.90;;;;;;10382366;28;20507;-84
2022/11/16 06:44:49;;;;;;;16.73;8.47;;;5.70;1.00;;;;;;10368633;28;20228;-90
2022/11/16 06:50:20;;;;;;;12.43;5.83;;;5.70;99.90;;;;;;10369573;28;20279;-85
2022/11/16 06:55:41;;;;;;;12.30;6.90;;;5.60;99.90;;;;;;10368582;28;20203;-88
2022/11/16 07:01:10;;;;;;;16.30;8.60;;;5.60;1.00;;;;;;10368308;28;20200;-90
2022/11/16 07:06:34;;;;;;;10.27;6.27;;;5.60;99.90;;;;;;10378238;28;20315;-85
2022/11/16 07:11:55;;;;;;;8.33;4.87;;;5.70;69.80;;;;;;10455846;28;20193;-86
2022/11/16 07:17:16;;;;;;;6.63;4.37;;;5.70;1.00;;;;;;10459722;28;20206;-85
2022/11/16 07:22:38;;;;;;;7.37;3.97;;;5.70;99.90;;;;;;10389993;28;20245;-94
2022/11/16 07:27:59;;;;;;;11.57;6.77;;;5.70;99.90;;;;;;10380866;28;20301;-87
2022/11/16 07:33:21;;;;;;;24.63;11.33;;;5.70;1.00;;;;;;10381191;28;20400;-84
2022/11/16 07:39:01;;;;;;;16.23;3.57;;;5.60;99.90;;;;;;10408466;28;20508;-86
2022/11/16 07:44:23;;;;;;;4.07;2.87;;;5.50;1.00;;;;;;10385840;28;20206;-82
2022/11/16 07:49:57;;;;;;;9.37;4.63;;;5.40;1.00;;;;;;10404321;28;20199;-85
2022/11/16 07:55:23;;;;;;;9.50;4.60;;;5.40;99.90;;;;;;10402454;28;20277;-85
2022/11/16 08:00:46;;;;;;;9.93;5.63;;;;;;;;;;10393100;28;20217;-87
2022/11/16 08:06:20;;;;;;;16.90;7.63;;;5.40;99.90;;;;;;10387452;28;20230;-83
2022/11/16 08:11:41;;;;;;;12.30;5.93;;;5.50;1.00;;;;;;10393910;28;20196;-88
2022/11/16 08:17:03;;;;;;;12.47;6.50;;;5.50;1.00;;;;;;10392980;28;20204;-83
2022/11/16 08:22:25;;;;;;;25.07;10.50;;;5.50;99.90;;;;;;10386041;28;20190;-83
2022/11/16 08:27:47;;;;;;;28.17;11.10;;;5.50;99.90;;;;;;10379869;28;20230;-84
2022/11/16 08:33:11;;;;;;;29.63;12.53;;;5.50;1.00;;;;;;10371925;28;20198;-88
2022/11/16 08:38:33;;;;;;;25.33;10.53;;;5.50;1.00;;;;;;10340961;28;20239;-84
2022/11/16 08:43:55;;;;;;;24.13;10.87;;;5.50;1.00;;;;;;10368905;28;20517;-83
2022/11/16 08:49:19;;;;;;;11.63;6.10;;;5.50;1.00;;;;;;10382065;28;20409;-89
2022/11/16 08:54:41;;;;;;;7.23;4.10;;;5.30;1.00;;;;;;10378181;28;20194;-88
2022/11/16 09:00:03;;;;;;;10.23;6.53;;;5.30;1.00;;;;;;10357214;28;20198;-91
2022/11/16 09:05:24;;;;;;;10.10;5.90;;;5.40;1.00;;;;;;10387027;28;20443;-82
2022/11/16 09:10:46;;;;;;;9.50;4.60;;;5.40;99.90;;;;;;10378597;28;20224;-88
2022/11/16 09:16:08;;;;;;;8.70;5.43;;;5.30;1.00;;;;;;10381533;28;20266;-86
2022/11/16 09:21:29;;;;;;;11.10;4.93;;;5.30;99.90;;;;;;10380822;28;20213;-82
2022/11/16 09:26:50;;;;;;;14.03;8.80;;;5.40;99.90;;;;;;10391222;28;20239;-81
2022/11/16 09:32:11;;;;;;;18.40;8.37;;;5.30;1.00;;;;;;10363995;28;20186;-87
2022/11/16 09:37:33;;;;;;;15.20;6.50;;;5.30;99.90;;;;;;10377922;28;20213;-86
2022/11/16 09:43:00;;;;;;;16.17;6.63;;;5.40;1.00;;;;;;10377755;28;20429;-86
2022/11/16 09:48:23;;;;;;;8.43;4.70;;;5.50;1.00;;;;;;10359420;28;20226;-83
2022/11/16 09:54:01;;;;;;;9.37;5.67;;;5.40;1.00;;;;;;10343870;28;20417;-84
2022/11/16 09:59:41;;;;;;;11.03;6.37;;;5.20;1.00;;;;;;10353697;28;20210;-83
2022/11/16 10:05:28;;;;;;;10.13;4.77;;;5.20;1.00;;;;;;10330793;28;20251;-91
2022/11/16 10:10:58;;;;;;;12.13;4.40;;;5.10;1.00;;;;;;10368920;28;20214;-81
2022/11/16 10:16:35;;;;;;;5.77;3.53;;;5.20;1.00;;;;;;10363617;28;20203;-86
2022/11/16 10:21:59;;;;;;;9.27;5.03;;;;;;;;;;10373365;28;20552;-83
2022/11/16 10:27:33;;;;;;;4.23;2.77;;;;;;;;;;10377237;28;20325;-88
2022/11/16 10:33:00;;;;;;;7.40;3.70;;;;;;;;;;10382518;28;20281;-83
2022/11/16 10:38:29;;;;;;;7.90;3.20;;;;;;;;;;10363982;28;20235;-91
2022/11/16 10:43:51;;;;;;;11.83;3.57;;;;;;;;;;10390514;28;20217;-80
2022/11/16 10:49:15;;;;;;;14.10;5.10;;;;;;;;;;10376427;28;20415;-85
2022/11/16 10:54:37;;;;;;;6.43;3.93;;;;;;;;;;10363293;28;20438;-92
2022/11/16 11:00:02;;;;;;;9.47;5.10;;;;;;;;;;10363901;28;20230;-83
2022/11/16 11:05:25;;;;;;;6.20;3.30;;;4.90;1.00;;;;;;10364237;28;20254;-85
2022/11/16 11:10:56;;;;;;;11.57;5.80;;;;;;;;;;10346359;28;20285;-83
2022/11/16 11:16:17;;;;;;;10.03;4.37;;;4.80;1.00;;;;;;10374061;28;20259;-80
2022/11/16 11:21:39;;;;;;;15.60;6.07;;;;;;;;;;10395807;28;20203;-86
2022/11/16 11:27:01;;;;;;;8.60;3.90;;;;;;;;;;10394271;28;20250;-82
2022/11/16 11:32:32;;;;;;;12.57;4.30;;;4.50;99.90;;;;;;10379979;28;20534;-84
2022/11/16 11:37:56;;;;;;;6.53;3.40;;;4.40;99.90;;;;;;10405378;28;20209;-82
2022/11/16 11:43:23;;;;;;;5.07;3.10;;;4.30;1.00;;;;;;10400255;28;20197;-85
2022/11/16 11:49:00;;;;;;;5.07;3.70;;;4.30;1.00;;;;;;10410787;28;20225;-84
2022/11/16 11:54:33;;;;;;;7.73;5.00;;;4.10;1.00;;;;;;10364694;28;20379;-84
2022/11/16 11:59:54;;;;;;;7.03;4.77;;;4.30;99.90;;;;;;10400081;28;20288;-82
2022/11/16 12:05:55;;;;;;;8.33;5.20;;;4.30;99.90;;;;;;10402050;28;20460;-88
2022/11/16 12:11:28;;;;;;;9.47;4.90;;;4.40;99.90;;;;;;10379439;28;20212;-84
2022/11/16 12:16:49;;;;;;;8.40;4.33;;;4.20;99.90;;;;;;10384233;28;20499;-83
2022/11/16 12:22:22;;;;;;;8.57;4.23;;;4.20;1.00;;;;;;10391718;28;20219;-86
2022/11/16 12:28:02;;;;;;;12.10;5.00;;;;;;;;;;10351156;28;20229;-85
2022/11/16 12:33:45;;;;;;;9.53;4.63;;;3.90;1.00;;;;;;10406929;28;20193;-86
2022/11/16 12:39:12;;;;;;;24.43;9.27;;;3.90;1.00;;;;;;10397731;28;20185;-84
2022/11/16 12:44:42;;;;;;;22.00;6.47;;;3.80;99.90;;;;;;10404088;28;20212;-87
2022/11/16 12:50:27;;;;;;;21.50;7.93;;;4.00;99.90;;;;;;10422133;28;20239;-86
2022/11/16 12:56:19;;;;;;;21.40;8.83;;;3.90;1.00;;;;;;10362928;28;20424;-83
2022/11/16 13:01:46;;;;;;;9.03;5.03;;;;;;;;;;10386093;28;20436;-83
2022/11/16 13:07:19;;;;;;;7.60;3.87;;;3.50;99.90;;;;;;10405838;28;20248;-85
2022/11/16 13:12:43;;;;;;;14.77;7.13;;;3.50;1.00;;;;;;10386588;28;20196;-84
2022/11/16 13:18:11;;;;;;;15.60;7.17;;;3.60;99.90;;;;;;10376625;28;20201;-83
2022/11/16 13:23:41;;;;;;;10.90;4.63;;;3.70;1.00;;;;;;10381620;28;20228;-85
2022/11/16 13:29:11;;;;;;;15.90;8.13;;;3.70;1.00;;;;;;10382005;28;20234;-82
2022/11/16 13:34:36;;;;;;;23.13;12.43;;;3.70;1.00;;;;;;10399697;28;20265;-82
2022/11/16 13:39:57;;;;;;;12.90;6.90;;;3.70;1.00;;;;;;10390825;28;20200;-82
2022/11/16 13:45:20;;;;;;;6.97;4.00;;;3.50;1.00;;;;;;10394352;28;20204;-83
2022/11/16 13:50:57;;;;;;;10.43;5.03;;;3.40;98.80;;;;;;10388175;28;20227;-84
2022/11/16 13:56:20;;;;;;;10.83;5.93;;;;;;;;;;10401849;28;20218;-84
2022/11/16 14:02:23;;;;;;;24.90;11.83;;;3.20;99.90;;;;;;10406170;28;20212;-84
2022/11/16 14:07:48;;;;;;;12.20;5.17;;;3.30;1.00;;;;;;10388140;28;20240;-84
2022/11/16 14:13:46;;;;;;;8.60;5.07;;;3.20;1.00;;;;;;10354372;28;20240;-85
2022/11/16 14:19:46;;;;;;;11.50;5.43;;;3.10;99.90;;;;;;10263315;28;20211;-78
2022/11/16 14:25:13;;;;;;;9.83;5.90;;;3.20;1.00;;;;;;10268357;28;20207;-80
2022/11/16 14:31:03;;;;;;;7.00;4.40;;;3.20;99.90;;;;;;10268852;28;20223;-81
2022/11/16 14:36:53;;;;;;;7.10;4.70;;;3.00;1.00;;;;;;10280986;28;20214;-83
2022/11/16 14:42:25;;;;;;;7.17;4.63;;;3.00;1.00;;;;;;10234967;28;20210;-82
2022/11/16 14:47:47;;;;;;;17.20;8.47;;;3.00;1.00;;;;;;10292742;28;20273;-81
2022/11/16 14:53:15;;;;;;;9.90;5.73;;;3.00;1.00;;;;;;10384240;28;20212;-82
2022/11/16 14:58:37;;;;;;;9.10;6.10;;;3.00;1.00;;;;;;10362386;28;20526;-80
2022/11/16 15:04:05;;;;;;;14.07;5.57;;;3.00;1.00;;;;;;10396576;28;20197;-82
2022/11/16 15:09:49;;;;;;;13.27;7.77;;;2.80;1.00;;;;;;10392386;28;20257;-82
2022/11/16 15:15:10;;;;;;;8.57;6.27;;;;;;;;;;10373662;28;20208;-83
2022/11/16 15:20:33;;;;;;;18.07;11.50;;;;;;;;;;10407177;28;20220;-83
2022/11/16 15:25:55;;;;;;;14.60;8.20;;;2.70;1.00;;;;;;10385663;28;20197;-81
2022/11/16 15:31:19;;;;;;;14.60;8.57;;;2.70;1.00;;;;;;10385583;28;20206;-87
2022/11/16 15:36:41;;;;;;;12.60;8.17;;;2.70;99.90;;;;;;10390889;28;20586;-85
2022/11/16 15:42:02;;;;;;;18.27;9.80;;;2.60;99.90;;;;;;10397536;28;20232;-88
2022/11/16 15:47:26;;;;;;;14.20;8.03;;;2.60;1.00;;;;;;10399809;28;20296;-85
2022/11/16 15:52:51;;;;;;;9.60;6.43;;;2.60;1.00;;;;;;10409861;28;20556;-85
2022/11/16 15:58:17;;;;;;;11.17;7.37;;;2.40;1.00;;;;;;10367331;28;20209;-82
2022/11/16 16:03:50;;;;;;;11.20;7.13;;;2.30;1.00;;;;;;10400141;28;20215;-89
2022/11/16 16:09:26;;;;;;;10.75;6.88;;;2.30;99.90;;;;;;10379136;28;20459;-84
2022/11/16 16:14:49;;;;;;;13.33;8.33;;;2.40;99.90;;;;;;10387567;28;20209;-80
2022/11/16 16:20:20;;;;;;;15.40;9.07;;;2.50;99.90;;;;;;10346270;28;20196;-84
2022/11/16 16:25:41;;;;;;;17.07;8.73;;;2.50;1.00;;;;;;10348567;28;20202;-81
2022/11/16 16:31:06;;;;;;;11.57;6.20;;;2.50;1.00;;;;;;10374210;28;20201;-89
2022/11/16 16:36:28;;;;;;;8.57;5.73;;;2.60;99.90;;;;;;10387837;28;20211;-82
2022/11/16 16:41:49;;;;;;;9.93;6.50;;;2.50;1.00;;;;;;10372731;28;20204;-83
2022/11/16 16:47:11;;;;;;;11.67;6.33;;;2.40;99.90;;;;;;10401855;28;20219;-88
2022/11/16 16:52:32;;;;;;;8.70;5.80;;;2.40;1.00;;;;;;10375469;28;20272;-86
2022/11/16 16:57:56;;;;;;;10.60;6.57;;;2.40;99.90;;;;;;10372647;28;20220;-83
2022/11/16 17:03:17;;;;;;;14.80;6.83;;;2.30;1.00;;;;;;10386670;28;20189;-87
2022/11/16 17:08:39;;;;;;;13.80;7.10;;;2.30;1.00;;;;;;10368475;28;20240;-88
2022/11/16 17:14:04;;;;;;;11.37;6.20;;;2.30;1.00;;;;;;10402849;28;20208;-85
2022/11/16 17:19:31;;;;;;;17.03;7.47;;;2.40;1.00;;;;;;10405369;28;20209;-88
2022/11/16 17:24:52;;;;;;;13.87;5.60;;;2.30;1.00;;;;;;10415357;28;20188;-81
2022/11/16 17:30:14;;;;;;;12.80;5.47;;;2.40;83.30;;;;;;10399290;28;20221;-82
2022/11/16 17:35:57;;;;;;;10.97;5.00;;;2.40;1.00;;;;;;10395824;28;20228;-85
2022/11/16 17:41:22;;;;;;;22.37;7.73;;;2.30;1.00;;;;;;10400549;28;20195;-85
2022/11/16 17:46:44;;;;;;;14.67;7.27;;;2.30;1.00;;;;;;10369798;28;20235;-83
2022/11/16 17:52:07;;;;;;;9.03;5.47;;;2.20;99.90;;;;;;10399707;28;20275;-85
2022/11/16 17:57:31;;;;;;;12.53;6.63;;;2.20;1.00;;;;;;10385039;28;20448;-83
2022/11/16 18:02:54;;;;;;;16.17;7.83;;;2.20;99.90;;;;;;10351935;28;20196;-85
2022/11/16 18:08:16;;;;;;;14.07;8.40;;;2.30;1.00;;;;;;10405754;28;20242;-83
2022/11/16 18:13:37;;;;;;;12.73;6.93;;;2.30;99.90;;;;;;10410868;28;20276;-87
2022/11/16 18:19:04;;;;;;;7.83;5.40;;;2.20;1.00;;;;;;10438494;28;20200;-87
2022/11/16 18:24:25;;;;;;;12.80;6.43;;;2.10;1.00;;;;;;10409918;28;20197;-86
2022/11/16 18:29:46;;;;;;;11.60;6.20;;;2.10;1.00;;;;;;10419310;28;20219;-87
2022/11/16 18:35:08;;;;;;;11.83;5.93;;;2.30;99.90;;;;;;10382988;28;20200;-89
2022/11/16 18:40:30;;;;;;;15.83;6.30;;;2.20;1.00;;;;;;10397117;28;20269;-86
2022/11/16 18:45:51;;;;;;;13.43;7.80;;;2.30;1.00;;;;;;10365063;28;20388;-87
2022/11/16 18:51:14;;;;;;;13.60;7.83;;;2.30;1.00;;;;;;10327814;28;20208;-85
2022/11/16 18:56:36;;;;;;;21.90;14.07;;;2.40;1.00;;;;;;10327492;28;20197;-89
2022/11/16 19:01:57;;;;;;;20.63;12.90;;;2.30;1.00;;;;;;10391566;28;20232;-81
2022/11/16 19:07:18;;;;;;;10.93;7.53;;;2.30;1.00;;;;;;10390906;28;20236;-82
2022/11/16 19:12:40;;;;;;;16.90;8.63;;;;;;;;;;10409973;28;20194;-82
2022/11/16 19:18:02;;;;;;;9.83;6.03;;;;;;;;;;10409216;28;20198;-88
2022/11/16 19:23:43;;;;;;;10.40;5.80;;;;;;;;;;10424654;28;20219;-80
2022/11/16 19:29:05;;;;;;;7.70;5.03;;;;;;;;;;10404371;28;20229;-80
2022/11/16 19:34:27;;;;;;;8.07;5.17;;;;;;;;;;10381113;28;20446;-85
2022/11/16 19:39:52;;;;;;;10.00;4.40;;;;;;;;;;10380828;28;20230;-86
2022/11/16 19:45:13;;;;;;;10.97;6.47;;;;;;;;;;10395799;28;20363;-88
2022/11/16 19:50:35;;;;;;;5.77;4.50;;;-1.30;1.00;;;;;;10380447;28;20231;-82
2022/11/16 19:55:56;;;;;;;12.30;6.60;;;2.20;1.00;;;;;;10367293;28;20368;-83
2022/11/16 20:01:26;;;;;;;9.87;5.23;;;2.30;1.00;;;;;;10395136;28;20200;-91
2022/11/16 20:06:47;;;;;;;17.40;8.03;;;2.30;99.90;;;;;;10383218;28;20243;-84
2022/11/16 20:12:10;;;;;;;19.50;8.40;;;2.30;1.00;;;;;;10370145;28;20249;-86
2022/11/16 20:17:32;;;;;;;14.87;6.83;;;2.40;1.00;;;;;;10399877;28;20203;-80
2022/11/16 20:22:53;;;;;;;13.93;7.07;;;2.40;1.00;;;;;;10405708;28;20201;-87
2022/11/16 20:28:14;;;;;;;24.33;10.00;;;2.40;1.00;;;;;;10400285;28;20217;-85
2022/11/16 20:33:36;;;;;;;17.17;7.70;;;2.50;1.00;;;;;;10386440;28;20272;-85
2022/11/16 20:38:58;;;;;;;14.27;7.20;;;2.50;1.00;;;;;;10346666;28;20205;-82
2022/11/16 20:44:21;;;;;;;13.87;7.73;;;2.60;1.00;;;;;;10336987;28;20222;-81
2022/11/16 20:49:42;;;;;;;15.13;7.83;;;2.60;1.00;;;;;;10346887;28;20287;-83
2022/11/16 20:55:03;;;;;;;10.43;5.33;;;2.60;1.00;;;;;;10332475;28;20220;-90
2022/11/16 21:00:25;;;;;;;9.23;5.23;;;2.60;99.90;;;;;;10366291;28;20228;-83
2022/11/16 21:05:50;;;;;;;12.43;6.13;;;2.60;99.90;;;;;;10388426;28;20235;-85
2022/11/16 21:11:16;;;;;;;9.13;5.57;;;2.60;1.00;;;;;;10391560;28;20370;-85
2022/11/16 21:16:38;;;;;;;8.50;5.03;;;2.60;99.90;;;;;;10399896;28;20316;-83
2022/11/16 21:21:59;;;;;;;11.00;5.23;;;2.60;41.00;;;;;;10399160;28;20495;-85
2022/11/16 21:27:20;;;;;;;11.63;5.60;;;2.60;1.00;;;;;;10374936;28;20531;-86
2022/11/16 21:32:43;;;;;;;7.57;4.67;;;2.60;99.90;;;;;;10400736;28;20185;-90
2022/11/16 21:38:04;;;;;;;12.37;5.40;;;2.60;42.10;;;;;;10349454;28;20208;-86
2022/11/16 21:43:26;;;;;;;7.73;4.10;;;2.60;84.20;;;;;;10396208;28;20196;-89
2022/11/16 21:48:49;;;;;;;9.00;5.00;;;2.60;99.90;;;;;;10384282;28;20241;-87
2022/11/16 21:54:10;;;;;;;6.23;3.77;;;2.60;99.90;;;;;;10370454;28;20236;-85
2022/11/16 21:59:32;;;;;;;7.60;3.53;;;2.70;1.00;;;;;;10397923;28;20193;-88
2022/11/16 22:10:34;;;;;;;5.67;3.67;;;2.70;66.70;;;;;;10412936;28;20216;-82
2022/11/16 22:15:55;;;;;;;6.27;4.00;;;2.60;1.00;;;;;;10397722;28;20196;-87
2022/11/16 22:21:17;;;;;;;7.93;3.93;;;2.70;1.00;;;;;;10383422;28;20534;-88
2022/11/16 22:26:39;;;;;;;9.03;3.90;;;2.60;1.00;;;;;;10382963;28;20242;-88
2022/11/16 22:32:01;;;;;;;5.20;3.67;;;2.60;1.00;;;;;;10399013;28;20510;-85
2022/11/16 22:37:22;;;;;;;5.17;3.70;;;2.60;25.30;;;;;;10341148;28;20197;-86
2022/11/16 22:42:43;;;;;;;4.77;3.03;;;2.60;99.90;;;;;;10341329;28;20198;-84
2022/11/16 22:48:05;;;;;;;6.40;3.70;;;2.60;99.90;;;;;;10358213;28;20305;-84
2022/11/16 22:53:26;;;;;;;9.47;4.37;;;2.60;1.00;;;;;;10327783;28;20193;-85
2022/11/16 22:58:48;;;;;;;5.57;3.63;;;2.60;1.00;;;;;;10327816;28;20280;-91
2022/11/16 23:04:09;;;;;;;10.77;3.90;;;2.50;1.00;;;;;;10341342;28;20201;-82
2022/11/16 23:09:31;;;;;;;7.20;3.47;;;2.50;1.00;;;;;;10389827;28;20236;-86
2022/11/16 23:32:01;;;;;;;8.43;4.13;;;2.50;1.00;;;;;;10381388;28;20510;-89
2022/11/16 23:37:23;;;;;;;3.97;2.80;;;2.50;1.00;;;;;;10380636;28;20507;-81
2022/11/16 23:48:24;;;;;;;5.30;3.00;;;2.50;99.90;;;;;;10381109;28;20233;-84
2022/11/16 23:53:45;;;;;;;5.87;3.20;;;2.40;99.90;;;;;;10402784;28;20189;-86
2022/11/16 23:59:06;;;;;;;5.63;2.97;;;2.40;1.00;;;;;;10374851;28;20272;-83
